»·PEaware :: N4121T KSPG-KEYW

N4121T :: KSPG-KEYW

FLIGHT INFORMATION

Flight Status: Arrived
Operator: Privately registered:
United States
More flights under this callsign
Pilot: Ulli W. (2180)
Aircraft: BEECH AIRCRAFT BARON
(BE58)
More flights by this aircraft type
Origin: KSPG Whitted
United States
Destination: KEYW Key West Intl
United States
More flights between these airports :: More routes between these airports
Route:
File this flight plan on PilotEdge
Remarks:
Altitude:
(Current/Filed)
5,500ft
Speed:
(Current/Filed)
160kts
Departed: 17-Sep-15 08:13 AM
Arrived: 17-Sep-15 09:30 AM
Distance/Time
Traveled:
198nm/1:17
Distance/Time
To Go:
Arrived

Flight Plot

Page will automatically refresh every two minutes.


Map Options




Map Legend


Flown Route
Filed Route
Departure Airport
Arrival Airport
Navaid (VOR, NDB)
Fix

Horizontal Profiles

Position Reports

Time Latitude Longitude Heading Altitude Ground
Speed
17-Sep-15 08:25 27.763033 -82.633196 0 8ft 0kts
17-Sep-15 08:26 27.764737 -82.630269 62 8ft 83kts
17-Sep-15 08:27 27.758417 -82.598547 161 923ft 130kts
17-Sep-15 08:28 27.716676 -82.582398 163 911ft 174kts
17-Sep-15 08:29 27.669543 -82.564525 163 907ft 180kts
17-Sep-15 08:30 27.625278 -82.539400 138 908ft 183kts
17-Sep-15 08:31 27.584659 -82.504932 151 907ft 182kts
17-Sep-15 08:32 27.545572 -82.479437 151 877ft 180kts
17-Sep-15 08:33 27.498850 -82.463011 171 876ft 178kts
17-Sep-15 08:34 27.450471 -82.453111 171 876ft 174kts
17-Sep-15 08:35 27.406062 -82.436823 149 877ft 174kts
17-Sep-15 08:36 27.366495 -82.407702 151 876ft 174kts
17-Sep-15 08:37 27.326903 -82.383396 154 1676ft 138kts
17-Sep-15 08:38 27.297192 -82.365086 154 2983ft 104kts
17-Sep-15 08:39 27.273026 -82.350204 154 4059ft 102kts
17-Sep-15 08:40 27.248170 -82.335492 154 5128ft 102kts
17-Sep-15 08:41 27.216846 -82.317911 154 5400ft 160kts
17-Sep-15 08:42 27.173192 -82.294334 154 5387ft 183kts
17-Sep-15 08:43 27.126563 -82.270200 155 5385ft 187kts
17-Sep-15 08:44 27.079188 -82.246047 155 5384ft 187kts
17-Sep-15 08:45 27.031695 -82.221963 155 5384ft 187kts
17-Sep-15 08:46 26.984121 -82.197987 155 5384ft 187kts
17-Sep-15 08:47 26.944341 -82.178054 155 5384ft 187kts
17-Sep-15 08:48 26.896953 -82.154432 155 5384ft 187kts
17-Sep-15 08:49 26.849766 -82.131036 155 5384ft 187kts
17-Sep-15 08:50 26.802868 -82.107915 155 5384ft 186kts
17-Sep-15 08:51 26.755941 -82.084887 155 5384ft 186kts
17-Sep-15 08:52 26.709109 -82.061958 155 5381ft 186kts
17-Sep-15 08:53 26.662158 -82.038758 155 5372ft 187kts
17-Sep-15 08:54 26.615460 -82.015274 154 5363ft 188kts
17-Sep-15 08:55 26.568594 -81.991297 154 5356ft 188kts
17-Sep-15 08:56 26.521677 -81.967070 154 5355ft 188kts
17-Sep-15 08:57 26.474846 -81.943050 154 5357ft 188kts
17-Sep-15 08:58 26.428085 -81.919340 154 5359ft 188kts
17-Sep-15 08:59 26.382231 -81.896384 155 5361ft 187kts
17-Sep-15 09:00 26.335540 -81.872729 155 5363ft 188kts
17-Sep-15 09:01 26.289384 -81.848646 155 5364ft 189kts
17-Sep-15 09:02 26.243287 -81.823762 155 5364ft 188kts
17-Sep-15 09:03 26.197574 -81.798651 155 5363ft 187kts
17-Sep-15 09:04 26.155377 -81.766958 139 5363ft 188kts
17-Sep-15 09:05 26.111945 -81.735733 153 5361ft 188kts
17-Sep-15 09:06 26.065660 -81.710090 154 5359ft 189kts
17-Sep-15 09:07 26.018389 -81.684898 154 5357ft 189kts
17-Sep-15 09:08 25.975570 -81.662870 155 5355ft 189kts
17-Sep-15 09:09 25.936518 -81.643545 155 5354ft 188kts
17-Sep-15 09:10 25.895746 -81.623382 155 5354ft 188kts
17-Sep-15 09:11 25.854431 -81.602968 155 5354ft 188kts
17-Sep-15 09:12 25.812941 -81.582485 155 5354ft 188kts
17-Sep-15 09:13 25.771469 -81.562028 155 5354ft 188kts
17-Sep-15 09:14 25.730572 -81.541870 155 5354ft 188kts
17-Sep-15 09:15 25.688526 -81.521160 155 5354ft 188kts
17-Sep-15 09:16 25.646242 -81.500350 155 5354ft 188kts
17-Sep-15 09:17 25.605315 -81.480224 155 5354ft 188kts
17-Sep-15 09:18 25.563144 -81.462918 172 5355ft 188kts
17-Sep-15 09:19 25.519279 -81.457093 173 5355ft 189kts
17-Sep-15 09:20 25.469078 -81.450545 173 5355ft 189kts
17-Sep-15 09:21 25.417342 -81.443863 173 5351ft 189kts
17-Sep-15 09:22 25.365303 -81.437628 173 5340ft 189kts
17-Sep-15 09:23 25.313020 -81.432048 173 5329ft 189kts
17-Sep-15 09:24 25.261022 -81.427103 173 5321ft 187kts
17-Sep-15 09:25 25.209042 -81.422326 173 5321ft 187kts
17-Sep-15 09:26 25.158023 -81.417661 173 5322ft 187kts
17-Sep-15 09:27 25.113980 -81.434171 207 5322ft 190kts
17-Sep-15 09:28 25.070332 -81.460906 207 5284ft 192kts
17-Sep-15 09:29 25.021714 -81.490458 207 4786ft 203kts
17-Sep-15 09:30 24.972161 -81.520364 207 4251ft 203kts
17-Sep-15 09:31 24.924159 -81.549167 207 3744ft 203kts
17-Sep-15 09:32 24.880371 -81.576696 210 3282ft 201kts
17-Sep-15 09:33 24.838466 -81.604806 210 2834ft 200kts
17-Sep-15 09:34 24.797905 -81.632204 212 2403ft 199kts
17-Sep-15 09:35 24.758197 -81.660622 212 1979ft 199kts
17-Sep-15 09:36 24.719801 -81.687895 212 1576ft 198kts
17-Sep-15 09:37 24.680783 -81.717113 219 1161ft 197kts
17-Sep-15 09:38 24.645237 -81.749253 219 1079ft 186kts
17-Sep-15 09:39 24.610309 -81.780223 218 1081ft 180kts
17-Sep-15 09:40 24.574069 -81.809981 215 1077ft 171kts
17-Sep-15 09:41 24.551920 -81.798000 68 870ft 105kts
17-Sep-15 09:42 24.556120 -81.772826 98 131ft 91kts
17-Sep-15 09:43 24.555230 -81.759910 88 3ft 23kts
17-Sep-15 09:44 24.554515 -81.756212 139 3ft 6kts
17-Sep-15 09:45 24.554439 -81.756140 139 3ft 0kts
17-Sep-15 09:46 24.554439 -81.756140 139 3ft 0kts

Navigation Log

Ident Type
Flight plan parsing failed, navigation log unavailable